sensor_id;sensor_type;location;lat;lon;timestamp;P1;durP1;ratioP1;P2;durP2;ratioP2
40286;SDS011;25998;46.604;13.610;2023-02-24T00:03:16;21.80;;;14.15;;
40286;SDS011;25998;46.604;13.610;2023-02-24T00:06:28;24.92;;;15.70;;
40286;SDS011;25998;46.604;13.610;2023-02-24T00:09:49;21.75;;;13.65;;
40286;SDS011;25998;46.604;13.610;2023-02-24T00:13:00;23.95;;;15.57;;
40286;SDS011;25998;46.604;13.610;2023-02-24T00:16:12;25.08;;;15.65;;
40286;SDS011;25998;46.604;13.610;2023-02-24T00:19:28;24.38;;;15.45;;
40286;SDS011;25998;46.604;13.610;2023-02-24T00:22:43;25.30;;;15.57;;
40286;SDS011;25998;46.604;13.610;2023-02-24T00:25:58;21.55;;;15.02;;
40286;SDS011;25998;46.604;13.610;2023-02-24T00:29:09;25.20;;;16.02;;
40286;SDS011;25998;46.604;13.610;2023-02-24T00:32:22;25.95;;;15.68;;
40286;SDS011;25998;46.604;13.610;2023-02-24T00:35:33;25.02;;;15.23;;
40286;SDS011;25998;46.604;13.610;2023-02-24T00:38:44;26.52;;;17.38;;
40286;SDS011;25998;46.604;13.610;2023-02-24T00:41:56;26.02;;;15.80;;
40286;SDS011;25998;46.604;13.610;2023-02-24T00:45:13;26.30;;;16.85;;
40286;SDS011;25998;46.604;13.610;2023-02-24T00:48:25;27.88;;;16.95;;
40286;SDS011;25998;46.604;13.610;2023-02-24T00:51:38;26.33;;;16.67;;
40286;SDS011;25998;46.604;13.610;2023-02-24T00:54:50;30.90;;;17.33;;
40286;SDS011;25998;46.604;13.610;2023-02-24T00:58:04;25.35;;;15.57;;
40286;SDS011;25998;46.604;13.610;2023-02-24T01:01:18;24.80;;;16.08;;
40286;SDS011;25998;46.604;13.610;2023-02-24T01:04:30;25.38;;;16.27;;
40286;SDS011;25998;46.604;13.610;2023-02-24T01:07:41;26.55;;;15.95;;
40286;SDS011;25998;46.604;13.610;2023-02-24T01:10:58;29.15;;;16.63;;
40286;SDS011;25998;46.604;13.610;2023-02-24T01:14:29;31.50;;;18.15;;
40286;SDS011;25998;46.604;13.610;2023-02-24T01:17:42;26.25;;;17.40;;
40286;SDS011;25998;46.604;13.610;2023-02-24T01:20:53;26.75;;;17.00;;
40286;SDS011;25998;46.604;13.610;2023-02-24T01:24:07;24.98;;;16.27;;
40286;SDS011;25998;46.604;13.610;2023-02-24T01:27:19;29.55;;;16.52;;
40286;SDS011;25998;46.604;13.610;2023-02-24T01:30:30;28.50;;;17.30;;
40286;SDS011;25998;46.604;13.610;2023-02-24T01:33:41;26.42;;;17.08;;
40286;SDS011;25998;46.604;13.610;2023-02-24T01:36:54;26.85;;;15.80;;
40286;SDS011;25998;46.604;13.610;2023-02-24T01:40:06;26.83;;;15.85;;
40286;SDS011;25998;46.604;13.610;2023-02-24T01:43:32;24.55;;;15.40;;
40286;SDS011;25998;46.604;13.610;2023-02-24T01:47:03;25.55;;;16.30;;
40286;SDS011;25998;46.604;13.610;2023-02-24T01:50:14;23.08;;;15.13;;
40286;SDS011;25998;46.604;13.610;2023-02-24T01:53:30;23.77;;;15.77;;
40286;SDS011;25998;46.604;13.610;2023-02-24T01:56:41;27.60;;;17.35;;
40286;SDS011;25998;46.604;13.610;2023-02-24T01:59:56;27.67;;;16.65;;
40286;SDS011;25998;46.604;13.610;2023-02-24T02:03:27;24.90;;;16.25;;
40286;SDS011;25998;46.604;13.610;2023-02-24T02:06:43;24.95;;;15.38;;
40286;SDS011;25998;46.604;13.610;2023-02-24T02:09:56;25.90;;;16.02;;
40286;SDS011;25998;46.604;13.610;2023-02-24T02:13:13;26.65;;;16.88;;
40286;SDS011;25998;46.604;13.610;2023-02-24T02:20:17;27.05;;;16.08;;
40286;SDS011;25998;46.604;13.610;2023-02-24T02:40:54;24.75;;;15.98;;
40286;SDS011;25998;46.604;13.610;2023-02-24T02:51:39;26.60;;;16.58;;
40286;SDS011;25998;46.604;13.610;2023-02-24T02:55:02;26.33;;;16.85;;
40286;SDS011;25998;46.604;13.610;2023-02-24T02:58:20;26.88;;;16.65;;
40286;SDS011;25998;46.604;13.610;2023-02-24T03:01:36;28.05;;;17.55;;
40286;SDS011;25998;46.604;13.610;2023-02-24T03:04:51;25.52;;;16.30;;
40286;SDS011;25998;46.604;13.610;2023-02-24T03:08:06;25.13;;;15.27;;
40286;SDS011;25998;46.604;13.610;2023-02-24T03:11:20;24.38;;;16.35;;
40286;SDS011;25998;46.604;13.610;2023-02-24T03:14:32;28.98;;;16.77;;
40286;SDS011;25998;46.604;13.610;2023-02-24T03:17:51;28.45;;;16.08;;
40286;SDS011;25998;46.604;13.610;2023-02-24T03:21:27;27.75;;;16.35;;
40286;SDS011;25998;46.604;13.610;2023-02-24T03:24:42;23.92;;;15.07;;
40286;SDS011;25998;46.604;13.610;2023-02-24T03:27:56;25.52;;;15.35;;
40286;SDS011;25998;46.604;13.610;2023-02-24T03:31:15;25.02;;;15.13;;
40286;SDS011;25998;46.604;13.610;2023-02-24T03:37:52;26.50;;;16.20;;
40286;SDS011;25998;46.604;13.610;2023-02-24T03:41:06;26.30;;;15.50;;
40286;SDS011;25998;46.604;13.610;2023-02-24T03:44:21;27.40;;;15.77;;
40286;SDS011;25998;46.604;13.610;2023-02-24T03:47:36;27.35;;;16.48;;
40286;SDS011;25998;46.604;13.610;2023-02-24T03:50:47;27.20;;;16.13;;
40286;SDS011;25998;46.604;13.610;2023-02-24T03:54:19;25.70;;;15.02;;
40286;SDS011;25998;46.604;13.610;2023-02-24T03:57:52;26.02;;;14.90;;
40286;SDS011;25998;46.604;13.610;2023-02-24T04:08:03;28.25;;;15.52;;
40286;SDS011;25998;46.604;13.610;2023-02-24T04:11:22;25.42;;;14.95;;
40286;SDS011;25998;46.604;13.610;2023-02-24T04:14:40;26.38;;;15.18;;
40286;SDS011;25998;46.604;13.610;2023-02-24T04:18:02;24.50;;;13.63;;
40286;SDS011;25998;46.604;13.610;2023-02-24T04:21:20;24.00;;;15.27;;
40286;SDS011;25998;46.604;13.610;2023-02-24T04:24:32;28.95;;;15.80;;
40286;SDS011;25998;46.604;13.610;2023-02-24T04:27:44;28.65;;;15.57;;
40286;SDS011;25998;46.604;13.610;2023-02-24T04:31:01;21.95;;;14.27;;
40286;SDS011;25998;46.604;13.610;2023-02-24T04:34:15;25.85;;;15.60;;
40286;SDS011;25998;46.604;13.610;2023-02-24T04:37:29;24.92;;;15.30;;
40286;SDS011;25998;46.604;13.610;2023-02-24T04:40:42;27.65;;;16.05;;
40286;SDS011;25998;46.604;13.610;2023-02-24T04:43:54;26.17;;;15.02;;
40286;SDS011;25998;46.604;13.610;2023-02-24T04:47:04;26.83;;;14.80;;
40286;SDS011;25998;46.604;13.610;2023-02-24T04:50:17;25.05;;;14.52;;
40286;SDS011;25998;46.604;13.610;2023-02-24T04:53:35;23.55;;;15.40;;
40286;SDS011;25998;46.604;13.610;2023-02-24T04:56:47;25.58;;;14.60;;
40286;SDS011;25998;46.604;13.610;2023-02-24T04:59:59;25.15;;;14.70;;
40286;SDS011;25998;46.604;13.610;2023-02-24T05:03:10;24.27;;;14.18;;
40286;SDS011;25998;46.604;13.610;2023-02-24T05:06:21;24.63;;;14.02;;
40286;SDS011;25998;46.604;13.610;2023-02-24T05:09:32;23.23;;;14.48;;
40286;SDS011;25998;46.604;13.610;2023-02-24T05:12:43;22.92;;;14.27;;
40286;SDS011;25998;46.604;13.610;2023-02-24T05:15:55;23.58;;;14.57;;
40286;SDS011;25998;46.604;13.610;2023-02-24T05:19:14;22.00;;;14.02;;
40286;SDS011;25998;46.604;13.610;2023-02-24T05:22:47;24.30;;;14.10;;
40286;SDS011;25998;46.604;13.610;2023-02-24T05:26:03;25.65;;;13.98;;
40286;SDS011;25998;46.604;13.610;2023-02-24T05:29:18;28.50;;;15.63;;
40286;SDS011;25998;46.604;13.610;2023-02-24T05:32:28;25.30;;;14.43;;
40286;SDS011;25998;46.604;13.610;2023-02-24T05:35:39;25.25;;;14.88;;
40286;SDS011;25998;46.604;13.610;2023-02-24T05:38:51;22.67;;;13.73;;
40286;SDS011;25998;46.604;13.610;2023-02-24T05:42:06;22.38;;;13.32;;
40286;SDS011;25998;46.604;13.610;2023-02-24T05:45:18;23.95;;;14.18;;
40286;SDS011;25998;46.604;13.610;2023-02-24T05:48:29;23.23;;;14.70;;
40286;SDS011;25998;46.604;13.610;2023-02-24T05:51:46;29.17;;;16.10;;
40286;SDS011;25998;46.604;13.610;2023-02-24T05:55:06;23.47;;;14.20;;
40286;SDS011;25998;46.604;13.610;2023-02-24T05:58:23;23.63;;;15.02;;
40286;SDS011;25998;46.604;13.610;2023-02-24T06:01:36;24.45;;;14.45;;
40286;SDS011;25998;46.604;13.610;2023-02-24T06:04:50;25.85;;;14.63;;
40286;SDS011;25998;46.604;13.610;2023-02-24T06:08:02;26.70;;;15.15;;
40286;SDS011;25998;46.604;13.610;2023-02-24T06:11:20;22.35;;;14.82;;
40286;SDS011;25998;46.604;13.610;2023-02-24T06:14:31;24.35;;;15.02;;
40286;SDS011;25998;46.604;13.610;2023-02-24T06:17:43;27.17;;;15.52;;
40286;SDS011;25998;46.604;13.610;2023-02-24T06:20:54;27.17;;;15.75;;
40286;SDS011;25998;46.604;13.610;2023-02-24T06:24:05;25.67;;;14.13;;
40286;SDS011;25998;46.604;13.610;2023-02-24T06:27:17;25.20;;;14.45;;
40286;SDS011;25998;46.604;13.610;2023-02-24T06:30:30;25.30;;;14.18;;
40286;SDS011;25998;46.604;13.610;2023-02-24T06:33:41;24.88;;;13.98;;
40286;SDS011;25998;46.604;13.610;2023-02-24T06:36:52;24.40;;;14.43;;
40286;SDS011;25998;46.604;13.610;2023-02-24T06:40:04;24.30;;;13.88;;
40286;SDS011;25998;46.604;13.610;2023-02-24T06:43:24;26.65;;;15.25;;
40286;SDS011;25998;46.604;13.610;2023-02-24T06:46:35;23.52;;;13.63;;
40286;SDS011;25998;46.604;13.610;2023-02-24T06:49:47;24.85;;;16.02;;
40286;SDS011;25998;46.604;13.610;2023-02-24T06:52:58;27.85;;;14.93;;
40286;SDS011;25998;46.604;13.610;2023-02-24T06:56:10;23.33;;;15.10;;
40286;SDS011;25998;46.604;13.610;2023-02-24T06:59:27;22.92;;;14.63;;
40286;SDS011;25998;46.604;13.610;2023-02-24T07:02:38;31.65;;;16.42;;
40286;SDS011;25998;46.604;13.610;2023-02-24T07:05:50;24.65;;;14.40;;
40286;SDS011;25998;46.604;13.610;2023-02-24T07:09:10;24.90;;;15.52;;
40286;SDS011;25998;46.604;13.610;2023-02-24T07:12:22;24.92;;;15.60;;
40286;SDS011;25998;46.604;13.610;2023-02-24T07:15:36;23.15;;;15.68;;
40286;SDS011;25998;46.604;13.610;2023-02-24T07:18:47;25.13;;;15.57;;
40286;SDS011;25998;46.604;13.610;2023-02-24T07:21:59;27.25;;;15.40;;
40286;SDS011;25998;46.604;13.610;2023-02-24T07:25:12;26.00;;;15.77;;
40286;SDS011;25998;46.604;13.610;2023-02-24T07:28:40;30.40;;;17.15;;
40286;SDS011;25998;46.604;13.610;2023-02-24T07:31:52;25.70;;;16.25;;
40286;SDS011;25998;46.604;13.610;2023-02-24T07:35:06;24.75;;;15.95;;
40286;SDS011;25998;46.604;13.610;2023-02-24T07:38:17;20.77;;;13.98;;
40286;SDS011;25998;46.604;13.610;2023-02-24T07:41:31;23.55;;;14.73;;
40286;SDS011;25998;46.604;13.610;2023-02-24T07:44:43;23.50;;;14.20;;
40286;SDS011;25998;46.604;13.610;2023-02-24T07:47:55;22.77;;;14.40;;
40286;SDS011;25998;46.604;13.610;2023-02-24T07:51:10;18.13;;;13.15;;
40286;SDS011;25998;46.604;13.610;2023-02-24T07:54:24;20.90;;;12.95;;
40286;SDS011;25998;46.604;13.610;2023-02-24T07:57:38;23.73;;;13.63;;
40286;SDS011;25998;46.604;13.610;2023-02-24T08:00:50;23.52;;;14.38;;
40286;SDS011;25998;46.604;13.610;2023-02-24T08:04:18;23.50;;;15.23;;
40286;SDS011;25998;46.604;13.610;2023-02-24T08:07:32;26.70;;;17.55;;
40286;SDS011;25998;46.604;13.610;2023-02-24T08:10:43;29.10;;;19.40;;
40286;SDS011;25998;46.604;13.610;2023-02-24T08:13:56;25.83;;;18.00;;
40286;SDS011;25998;46.604;13.610;2023-02-24T08:17:08;24.65;;;15.65;;
40286;SDS011;25998;46.604;13.610;2023-02-24T08:20:20;22.58;;;15.43;;
40286;SDS011;25998;46.604;13.610;2023-02-24T08:23:31;24.08;;;15.90;;
40286;SDS011;25998;46.604;13.610;2023-02-24T08:26:53;22.48;;;15.13;;
40286;SDS011;25998;46.604;13.610;2023-02-24T08:30:15;25.40;;;16.15;;
40286;SDS011;25998;46.604;13.610;2023-02-24T08:33:38;22.88;;;14.80;;
40286;SDS011;25998;46.604;13.610;2023-02-24T08:36:50;25.05;;;15.85;;
40286;SDS011;25998;46.604;13.610;2023-02-24T08:40:10;23.73;;;14.98;;
40286;SDS011;25998;46.604;13.610;2023-02-24T08:43:42;24.60;;;16.05;;
40286;SDS011;25998;46.604;13.610;2023-02-24T08:46:55;25.00;;;16.50;;
40286;SDS011;25998;46.604;13.610;2023-02-24T08:50:06;23.27;;;15.05;;
40286;SDS011;25998;46.604;13.610;2023-02-24T08:53:19;26.80;;;15.43;;
40286;SDS011;25998;46.604;13.610;2023-02-24T08:56:31;29.58;;;16.70;;
40286;SDS011;25998;46.604;13.610;2023-02-24T08:59:43;26.88;;;15.65;;
40286;SDS011;25998;46.604;13.610;2023-02-24T09:02:59;24.85;;;15.30;;
40286;SDS011;25998;46.604;13.610;2023-02-24T09:06:10;25.58;;;16.42;;
40286;SDS011;25998;46.604;13.610;2023-02-24T09:09:21;23.48;;;15.50;;
40286;SDS011;25998;46.604;13.610;2023-02-24T09:12:33;25.02;;;15.77;;
40286;SDS011;25998;46.604;13.610;2023-02-24T09:15:50;23.05;;;14.95;;
40286;SDS011;25998;46.604;13.610;2023-02-24T09:19:00;33.53;;;17.10;;
40286;SDS011;25998;46.604;13.610;2023-02-24T09:22:45;21.33;;;14.48;;
40286;SDS011;25998;46.604;13.610;2023-02-24T09:26:14;21.23;;;14.90;;
40286;SDS011;25998;46.604;13.610;2023-02-24T09:29:26;32.35;;;16.33;;
40286;SDS011;25998;46.604;13.610;2023-02-24T09:32:43;26.63;;;17.05;;
40286;SDS011;25998;46.604;13.610;2023-02-24T09:39:29;24.35;;;16.45;;
40286;SDS011;25998;46.604;13.610;2023-02-24T09:43:03;25.40;;;17.17;;
40286;SDS011;25998;46.604;13.610;2023-02-24T09:46:20;56.22;;;20.15;;
40286;SDS011;25998;46.604;13.610;2023-02-24T09:53:07;26.95;;;16.92;;
40286;SDS011;25998;46.604;13.610;2023-02-24T09:56:42;30.42;;;19.45;;
40286;SDS011;25998;46.604;13.610;2023-02-24T10:00:17;34.65;;;19.70;;
40286;SDS011;25998;46.604;13.610;2023-02-24T10:03:34;34.00;;;21.33;;
40286;SDS011;25998;46.604;13.610;2023-02-24T10:10:17;29.45;;;18.23;;
40286;SDS011;25998;46.604;13.610;2023-02-24T10:13:39;33.28;;;19.73;;
40286;SDS011;25998;46.604;13.610;2023-02-24T10:17:01;29.55;;;18.08;;
40286;SDS011;25998;46.604;13.610;2023-02-24T10:20:37;44.67;;;24.67;;
40286;SDS011;25998;46.604;13.610;2023-02-24T10:24:09;45.42;;;24.45;;
40286;SDS011;25998;46.604;13.610;2023-02-24T10:27:36;43.78;;;25.27;;
40286;SDS011;25998;46.604;13.610;2023-02-24T10:34:33;48.75;;;28.25;;
40286;SDS011;25998;46.604;13.610;2023-02-24T10:37:44;48.00;;;28.35;;
40286;SDS011;25998;46.604;13.610;2023-02-24T10:40:55;127.82;;;39.13;;
40286;SDS011;25998;46.604;13.610;2023-02-24T10:44:06;45.00;;;28.52;;
40286;SDS011;25998;46.604;13.610;2023-02-24T10:47:24;50.33;;;28.70;;
40286;SDS011;25998;46.604;13.610;2023-02-24T10:50:42;54.70;;;30.10;;
40286;SDS011;25998;46.604;13.610;2023-02-24T10:54:01;55.72;;;30.48;;
40286;SDS011;25998;46.604;13.610;2023-02-24T10:57:41;51.33;;;30.02;;
40286;SDS011;25998;46.604;13.610;2023-02-24T11:01:05;51.00;;;29.02;;
40286;SDS011;25998;46.604;13.610;2023-02-24T11:04:51;51.88;;;30.80;;
40286;SDS011;25998;46.604;13.610;2023-02-24T11:08:14;52.17;;;30.02;;
40286;SDS011;25998;46.604;13.610;2023-02-24T11:12:14;61.40;;;32.42;;
40286;SDS011;25998;46.604;13.610;2023-02-24T11:15:52;48.58;;;28.60;;
40286;SDS011;25998;46.604;13.610;2023-02-24T11:19:26;46.28;;;29.42;;
40286;SDS011;25998;46.604;13.610;2023-02-24T11:22:40;51.03;;;29.65;;
40286;SDS011;25998;46.604;13.610;2023-02-24T11:25:54;50.70;;;30.77;;
40286;SDS011;25998;46.604;13.610;2023-02-24T11:36:31;51.10;;;31.05;;
40286;SDS011;25998;46.604;13.610;2023-02-24T11:43:26;51.72;;;30.42;;
40286;SDS011;25998;46.604;13.610;2023-02-24T11:46:46;49.00;;;29.80;;
40286;SDS011;25998;46.604;13.610;2023-02-24T11:50:06;46.80;;;28.27;;
40286;SDS011;25998;46.604;13.610;2023-02-24T11:53:50;47.90;;;28.77;;
40286;SDS011;25998;46.604;13.610;2023-02-24T11:57:28;47.78;;;29.23;;
40286;SDS011;25998;46.604;13.610;2023-02-24T12:00:52;45.60;;;28.35;;
40286;SDS011;25998;46.604;13.610;2023-02-24T12:10:52;50.65;;;28.90;;
40286;SDS011;25998;46.604;13.610;2023-02-24T12:14:15;46.30;;;26.20;;
40286;SDS011;25998;46.604;13.610;2023-02-24T12:20:54;50.13;;;28.60;;
40286;SDS011;25998;46.604;13.610;2023-02-24T12:24:28;45.58;;;29.60;;
40286;SDS011;25998;46.604;13.610;2023-02-24T12:27:42;46.63;;;28.73;;
40286;SDS011;25998;46.604;13.610;2023-02-24T12:38:37;43.60;;;25.90;;
40286;SDS011;25998;46.604;13.610;2023-02-24T12:42:05;41.10;;;25.30;;
40286;SDS011;25998;46.604;13.610;2023-02-24T12:55:49;44.22;;;27.15;;
40286;SDS011;25998;46.604;13.610;2023-02-24T12:59:14;39.92;;;25.15;;
40286;SDS011;25998;46.604;13.610;2023-02-24T13:12:37;39.70;;;24.77;;
40286;SDS011;25998;46.604;13.610;2023-02-24T13:16:03;38.90;;;25.60;;
40286;SDS011;25998;46.604;13.610;2023-02-24T13:22:31;43.08;;;26.08;;
40286;SDS011;25998;46.604;13.610;2023-02-24T13:25:48;41.90;;;26.35;;
40286;SDS011;25998;46.604;13.610;2023-02-24T13:29:19;47.50;;;26.33;;
40286;SDS011;25998;46.604;13.610;2023-02-24T13:32:40;39.70;;;21.58;;
40286;SDS011;25998;46.604;13.610;2023-02-24T13:39:35;41.15;;;25.02;;
40286;SDS011;25998;46.604;13.610;2023-02-24T13:42:57;45.78;;;26.55;;
40286;SDS011;25998;46.604;13.610;2023-02-24T13:46:15;41.92;;;25.33;;
40286;SDS011;25998;46.604;13.610;2023-02-24T13:53:22;40.38;;;24.63;;
40286;SDS011;25998;46.604;13.610;2023-02-24T14:04:24;40.85;;;24.63;;
40286;SDS011;25998;46.604;13.610;2023-02-24T14:07:45;40.75;;;23.38;;
40286;SDS011;25998;46.604;13.610;2023-02-24T14:10:59;44.47;;;26.92;;
40286;SDS011;25998;46.604;13.610;2023-02-24T14:14:15;41.85;;;25.02;;
40286;SDS011;25998;46.604;13.610;2023-02-24T14:17:31;40.10;;;22.98;;
40286;SDS011;25998;46.604;13.610;2023-02-24T14:20:44;38.25;;;24.27;;
40286;SDS011;25998;46.604;13.610;2023-02-24T14:24:03;43.92;;;26.05;;
40286;SDS011;25998;46.604;13.610;2023-02-24T14:27:23;40.53;;;23.77;;
40286;SDS011;25998;46.604;13.610;2023-02-24T14:30:38;38.47;;;23.50;;
40286;SDS011;25998;46.604;13.610;2023-02-24T14:33:58;43.55;;;24.42;;
40286;SDS011;25998;46.604;13.610;2023-02-24T14:37:10;39.28;;;24.48;;
40286;SDS011;25998;46.604;13.610;2023-02-24T14:40:26;42.63;;;24.27;;
40286;SDS011;25998;46.604;13.610;2023-02-24T14:43:40;38.28;;;23.08;;
40286;SDS011;25998;46.604;13.610;2023-02-24T14:46:56;37.10;;;21.75;;
40286;SDS011;25998;46.604;13.610;2023-02-24T14:50:13;40.63;;;22.75;;
40286;SDS011;25998;46.604;13.610;2023-02-24T14:53:26;41.65;;;24.13;;
40286;SDS011;25998;46.604;13.610;2023-02-24T14:56:40;45.47;;;23.88;;
40286;SDS011;25998;46.604;13.610;2023-02-24T14:59:52;37.55;;;22.95;;
40286;SDS011;25998;46.604;13.610;2023-02-24T15:06:31;33.53;;;20.88;;
40286;SDS011;25998;46.604;13.610;2023-02-24T15:09:49;35.97;;;22.35;;
40286;SDS011;25998;46.604;13.610;2023-02-24T15:16:26;35.80;;;22.27;;
40286;SDS011;25998;46.604;13.610;2023-02-24T15:19:56;39.00;;;23.63;;
40286;SDS011;25998;46.604;13.610;2023-02-24T15:23:27;37.80;;;22.35;;
40286;SDS011;25998;46.604;13.610;2023-02-24T15:26:52;40.85;;;23.10;;
40286;SDS011;25998;46.604;13.610;2023-02-24T15:30:24;38.28;;;23.20;;
40286;SDS011;25998;46.604;13.610;2023-02-24T15:33:44;36.08;;;22.35;;
40286;SDS011;25998;46.604;13.610;2023-02-24T15:37:11;38.03;;;22.10;;
40286;SDS011;25998;46.604;13.610;2023-02-24T15:40:24;34.92;;;22.42;;
40286;SDS011;25998;46.604;13.610;2023-02-24T15:43:37;39.17;;;23.40;;
40286;SDS011;25998;46.604;13.610;2023-02-24T15:46:55;39.88;;;23.08;;
40286;SDS011;25998;46.604;13.610;2023-02-24T15:50:07;42.78;;;24.58;;
40286;SDS011;25998;46.604;13.610;2023-02-24T15:53:19;39.08;;;23.10;;
40286;SDS011;25998;46.604;13.610;2023-02-24T15:56:31;35.03;;;21.70;;
40286;SDS011;25998;46.604;13.610;2023-02-24T15:59:43;35.92;;;22.00;;
40286;SDS011;25998;46.604;13.610;2023-02-24T16:02:54;38.67;;;23.55;;
40286;SDS011;25998;46.604;13.610;2023-02-24T16:06:06;37.95;;;23.15;;
40286;SDS011;25998;46.604;13.610;2023-02-24T16:09:34;57.58;;;29.58;;
40286;SDS011;25998;46.604;13.610;2023-02-24T16:13:00;44.10;;;23.80;;
40286;SDS011;25998;46.604;13.610;2023-02-24T16:16:11;36.88;;;21.83;;
40286;SDS011;25998;46.604;13.610;2023-02-24T16:19:22;239.18;;;138.70;;
40286;SDS011;25998;46.604;13.610;2023-02-24T16:22:34;472.48;;;339.05;;
40286;SDS011;25998;46.604;13.610;2023-02-24T16:25:45;193.65;;;136.00;;
40286;SDS011;25998;46.604;13.610;2023-02-24T16:28:58;280.90;;;192.50;;
40286;SDS011;25998;46.604;13.610;2023-02-24T16:32:11;84.32;;;57.97;;
40286;SDS011;25998;46.604;13.610;2023-02-24T16:35:23;41.17;;;21.52;;
40286;SDS011;25998;46.604;13.610;2023-02-24T16:38:34;45.05;;;21.40;;
40286;SDS011;25998;46.604;13.610;2023-02-24T16:41:45;201.63;;;122.30;;
40286;SDS011;25998;46.604;13.610;2023-02-24T16:44:56;199.35;;;123.18;;
40286;SDS011;25998;46.604;13.610;2023-02-24T16:48:20;57.63;;;32.15;;
40286;SDS011;25998;46.604;13.610;2023-02-24T16:51:33;51.28;;;28.13;;
40286;SDS011;25998;46.604;13.610;2023-02-24T16:54:44;89.63;;;54.75;;
40286;SDS011;25998;46.604;13.610;2023-02-24T16:57:57;47.88;;;26.60;;
40286;SDS011;25998;46.604;13.610;2023-02-24T17:01:09;226.55;;;171.52;;
40286;SDS011;25998;46.604;13.610;2023-02-24T17:04:28;51.15;;;32.15;;
40286;SDS011;25998;46.604;13.610;2023-02-24T17:07:41;42.28;;;23.80;;
40286;SDS011;25998;46.604;13.610;2023-02-24T17:10:51;44.20;;;20.98;;
40286;SDS011;25998;46.604;13.610;2023-02-24T17:14:03;38.00;;;20.02;;
40286;SDS011;25998;46.604;13.610;2023-02-24T17:17:13;38.42;;;19.60;;
40286;SDS011;25998;46.604;13.610;2023-02-24T17:20:24;36.03;;;21.88;;
40286;SDS011;25998;46.604;13.610;2023-02-24T17:23:35;41.80;;;22.70;;
40286;SDS011;25998;46.604;13.610;2023-02-24T17:26:46;34.90;;;21.52;;
40286;SDS011;25998;46.604;13.610;2023-02-24T17:29:57;34.03;;;18.63;;
40286;SDS011;25998;46.604;13.610;2023-02-24T17:37:09;37.10;;;21.65;;
40286;SDS011;25998;46.604;13.610;2023-02-24T17:40:19;51.47;;;24.10;;
40286;SDS011;25998;46.604;13.610;2023-02-24T17:43:31;45.58;;;20.67;;
40286;SDS011;25998;46.604;13.610;2023-02-24T17:46:41;40.05;;;19.85;;
40286;SDS011;25998;46.604;13.610;2023-02-24T17:49:52;41.80;;;21.02;;
40286;SDS011;25998;46.604;13.610;2023-02-24T17:53:03;38.33;;;19.20;;
40286;SDS011;25998;46.604;13.610;2023-02-24T17:56:14;51.58;;;22.10;;
40286;SDS011;25998;46.604;13.610;2023-02-24T17:59:24;39.60;;;20.00;;
40286;SDS011;25998;46.604;13.610;2023-02-24T18:02:35;38.53;;;19.38;;
40286;SDS011;25998;46.604;13.610;2023-02-24T18:05:46;44.20;;;21.02;;
40286;SDS011;25998;46.604;13.610;2023-02-24T18:08:57;52.67;;;22.58;;
40286;SDS011;25998;46.604;13.610;2023-02-24T18:12:08;45.85;;;21.65;;
40286;SDS011;25998;46.604;13.610;2023-02-24T18:15:19;37.80;;;20.05;;
40286;SDS011;25998;46.604;13.610;2023-02-24T18:18:30;42.38;;;21.92;;
40286;SDS011;25998;46.604;13.610;2023-02-24T18:21:41;41.40;;;24.67;;
40286;SDS011;25998;46.604;13.610;2023-02-24T18:24:51;37.42;;;20.92;;
40286;SDS011;25998;46.604;13.610;2023-02-24T18:28:02;35.47;;;22.30;;
40286;SDS011;25998;46.604;13.610;2023-02-24T18:31:15;40.83;;;24.70;;
40286;SDS011;25998;46.604;13.610;2023-02-24T18:34:28;40.28;;;24.13;;
40286;SDS011;25998;46.604;13.610;2023-02-24T18:37:39;43.65;;;25.20;;
40286;SDS011;25998;46.604;13.610;2023-02-24T18:41:00;41.35;;;24.45;;
40286;SDS011;25998;46.604;13.610;2023-02-24T18:44:12;47.17;;;25.98;;
40286;SDS011;25998;46.604;13.610;2023-02-24T18:47:23;50.40;;;26.92;;
40286;SDS011;25998;46.604;13.610;2023-02-24T18:50:34;49.17;;;26.70;;
40286;SDS011;25998;46.604;13.610;2023-02-24T18:53:45;48.45;;;27.75;;
40286;SDS011;25998;46.604;13.610;2023-02-24T18:56:56;41.33;;;24.58;;
40286;SDS011;25998;46.604;13.610;2023-02-24T19:00:07;46.67;;;25.35;;
40286;SDS011;25998;46.604;13.610;2023-02-24T19:03:18;42.67;;;24.30;;
40286;SDS011;25998;46.604;13.610;2023-02-24T19:06:30;37.67;;;22.30;;
40286;SDS011;25998;46.604;13.610;2023-02-24T19:09:41;35.17;;;19.45;;
40286;SDS011;25998;46.604;13.610;2023-02-24T19:12:54;37.45;;;20.80;;
40286;SDS011;25998;46.604;13.610;2023-02-24T19:16:05;35.63;;;20.33;;
40286;SDS011;25998;46.604;13.610;2023-02-24T19:19:16;41.85;;;22.40;;
40286;SDS011;25998;46.604;13.610;2023-02-24T19:22:27;35.95;;;20.25;;
40286;SDS011;25998;46.604;13.610;2023-02-24T19:25:38;37.25;;;20.88;;
40286;SDS011;25998;46.604;13.610;2023-02-24T19:28:48;36.75;;;20.98;;
40286;SDS011;25998;46.604;13.610;2023-02-24T19:31:59;46.90;;;24.35;;
40286;SDS011;25998;46.604;13.610;2023-02-24T19:35:10;39.85;;;21.63;;
40286;SDS011;25998;46.604;13.610;2023-02-24T19:38:22;40.70;;;23.20;;
40286;SDS011;25998;46.604;13.610;2023-02-24T19:41:33;39.15;;;23.55;;
40286;SDS011;25998;46.604;13.610;2023-02-24T19:44:45;42.72;;;24.65;;
40286;SDS011;25998;46.604;13.610;2023-02-24T19:47:56;38.20;;;21.25;;
40286;SDS011;25998;46.604;13.610;2023-02-24T19:54:19;43.35;;;21.90;;
40286;SDS011;25998;46.604;13.610;2023-02-24T19:57:31;38.88;;;20.50;;
40286;SDS011;25998;46.604;13.610;2023-02-24T20:00:42;42.75;;;21.02;;
40286;SDS011;25998;46.604;13.610;2023-02-24T20:03:54;40.53;;;20.48;;
40286;SDS011;25998;46.604;13.610;2023-02-24T20:07:06;38.95;;;22.17;;
40286;SDS011;25998;46.604;13.610;2023-02-24T20:10:17;35.70;;;20.35;;
40286;SDS011;25998;46.604;13.610;2023-02-24T20:13:28;34.63;;;19.75;;
40286;SDS011;25998;46.604;13.610;2023-02-24T20:16:39;35.00;;;20.67;;
40286;SDS011;25998;46.604;13.610;2023-02-24T20:19:51;35.30;;;20.23;;
40286;SDS011;25998;46.604;13.610;2023-02-24T20:23:02;36.55;;;19.98;;
40286;SDS011;25998;46.604;13.610;2023-02-24T20:26:12;34.88;;;19.15;;
40286;SDS011;25998;46.604;13.610;2023-02-24T20:29:25;34.85;;;19.15;;
40286;SDS011;25998;46.604;13.610;2023-02-24T20:32:38;32.13;;;18.80;;
40286;SDS011;25998;46.604;13.610;2023-02-24T20:35:49;41.20;;;20.83;;
40286;SDS011;25998;46.604;13.610;2023-02-24T20:39:00;31.15;;;18.80;;
40286;SDS011;25998;46.604;13.610;2023-02-24T20:42:11;28.98;;;18.15;;
40286;SDS011;25998;46.604;13.610;2023-02-24T20:45:22;38.35;;;18.67;;
40286;SDS011;25998;46.604;13.610;2023-02-24T20:48:33;34.58;;;18.25;;
40286;SDS011;25998;46.604;13.610;2023-02-24T20:51:44;34.03;;;18.25;;
40286;SDS011;25998;46.604;13.610;2023-02-24T20:54:55;31.55;;;17.05;;
40286;SDS011;25998;46.604;13.610;2023-02-24T20:58:06;32.50;;;18.35;;
40286;SDS011;25998;46.604;13.610;2023-02-24T21:01:18;36.63;;;17.95;;
40286;SDS011;25998;46.604;13.610;2023-02-24T21:04:30;27.65;;;16.10;;